sensor_id;sensor_type;location;lat;lon;timestamp;P1;durP1;ratioP1;P2;durP2;ratioP2
12145;SDS011;6136;47.032;15.398;2023-07-31T00:01:29;1.53;;;1.43;;
12145;SDS011;6136;47.032;15.398;2023-07-31T00:03:57;3.90;;;2.00;;
12145;SDS011;6136;47.032;15.398;2023-07-31T00:06:25;1.40;;;1.30;;
12145;SDS011;6136;47.032;15.398;2023-07-31T00:08:53;2.60;;;1.67;;
12145;SDS011;6136;47.032;15.398;2023-07-31T00:11:22;6.57;;;1.97;;
12145;SDS011;6136;47.032;15.398;2023-07-31T00:13:52;1.80;;;1.70;;
12145;SDS011;6136;47.032;15.398;2023-07-31T00:16:21;2.80;;;1.80;;
12145;SDS011;6136;47.032;15.398;2023-07-31T00:18:49;3.27;;;2.17;;
12145;SDS011;6136;47.032;15.398;2023-07-31T00:21:17;1.70;;;1.60;;
12145;SDS011;6136;47.032;15.398;2023-07-31T00:23:45;2.00;;;1.80;;
12145;SDS011;6136;47.032;15.398;2023-07-31T00:26:13;2.28;;;1.90;;
12145;SDS011;6136;47.032;15.398;2023-07-31T00:28:43;2.53;;;1.90;;
12145;SDS011;6136;47.032;15.398;2023-07-31T00:31:11;3.23;;;1.80;;
12145;SDS011;6136;47.032;15.398;2023-07-31T00:33:39;2.33;;;2.07;;
12145;SDS011;6136;47.032;15.398;2023-07-31T00:36:07;4.57;;;2.33;;
12145;SDS011;6136;47.032;15.398;2023-07-31T00:38:35;3.40;;;1.90;;
12145;SDS011;6136;47.032;15.398;2023-07-31T00:41:05;3.50;;;2.07;;
12145;SDS011;6136;47.032;15.398;2023-07-31T00:43:33;2.37;;;2.00;;
12145;SDS011;6136;47.032;15.398;2023-07-31T00:46:02;2.43;;;1.90;;
12145;SDS011;6136;47.032;15.398;2023-07-31T00:48:31;5.03;;;2.57;;
12145;SDS011;6136;47.032;15.398;2023-07-31T00:51:00;2.50;;;2.10;;
12145;SDS011;6136;47.032;15.398;2023-07-31T00:53:28;2.10;;;1.90;;
12145;SDS011;6136;47.032;15.398;2023-07-31T00:55:57;2.43;;;1.70;;
12145;SDS011;6136;47.032;15.398;2023-07-31T00:58:25;3.10;;;2.47;;
12145;SDS011;6136;47.032;15.398;2023-07-31T01:00:53;10.77;;;2.13;;
12145;SDS011;6136;47.032;15.398;2023-07-31T01:03:23;3.38;;;1.92;;
12145;SDS011;6136;47.032;15.398;2023-07-31T01:05:54;3.38;;;1.85;;
12145;SDS011;6136;47.032;15.398;2023-07-31T01:08:37;5.97;;;2.60;;
12145;SDS011;6136;47.032;15.398;2023-07-31T01:11:13;2.57;;;2.20;;
12145;SDS011;6136;47.032;15.398;2023-07-31T01:13:44;2.30;;;2.10;;
12145;SDS011;6136;47.032;15.398;2023-07-31T01:16:13;3.53;;;2.37;;
12145;SDS011;6136;47.032;15.398;2023-07-31T01:18:43;2.23;;;2.00;;
12145;SDS011;6136;47.032;15.398;2023-07-31T01:21:26;3.17;;;2.45;;
12145;SDS011;6136;47.032;15.398;2023-07-31T01:24:20;2.70;;;2.10;;
12145;SDS011;6136;47.032;15.398;2023-07-31T01:26:53;3.27;;;2.50;;
12145;SDS011;6136;47.032;15.398;2023-07-31T01:29:31;2.77;;;2.33;;
12145;SDS011;6136;47.032;15.398;2023-07-31T01:32:04;2.67;;;2.27;;
12145;SDS011;6136;47.032;15.398;2023-07-31T01:34:36;2.40;;;2.00;;
12145;SDS011;6136;47.032;15.398;2023-07-31T01:37:04;2.30;;;2.10;;
12145;SDS011;6136;47.032;15.398;2023-07-31T01:39:33;1.97;;;1.70;;
12145;SDS011;6136;47.032;15.398;2023-07-31T01:42:02;2.47;;;2.10;;
12145;SDS011;6136;47.032;15.398;2023-07-31T01:44:31;3.13;;;2.63;;
12145;SDS011;6136;47.032;15.398;2023-07-31T01:47:00;7.20;;;2.23;;
12145;SDS011;6136;47.032;15.398;2023-07-31T01:49:28;4.70;;;2.33;;
12145;SDS011;6136;47.032;15.398;2023-07-31T01:51:56;2.27;;;2.07;;
12145;SDS011;6136;47.032;15.398;2023-07-31T01:54:24;2.17;;;1.97;;
12145;SDS011;6136;47.032;15.398;2023-07-31T01:56:52;2.30;;;2.03;;
12145;SDS011;6136;47.032;15.398;2023-07-31T01:59:22;4.20;;;2.37;;
12145;SDS011;6136;47.032;15.398;2023-07-31T02:01:50;2.30;;;1.90;;
12145;SDS011;6136;47.032;15.398;2023-07-31T02:04:20;3.10;;;2.23;;
12145;SDS011;6136;47.032;15.398;2023-07-31T02:06:48;4.47;;;2.07;;
12145;SDS011;6136;47.032;15.398;2023-07-31T02:09:16;3.27;;;2.30;;
12145;SDS011;6136;47.032;15.398;2023-07-31T02:11:44;3.03;;;2.10;;
12145;SDS011;6136;47.032;15.398;2023-07-31T02:14:12;4.57;;;2.37;;
12145;SDS011;6136;47.032;15.398;2023-07-31T02:16:42;2.30;;;1.97;;
12145;SDS011;6136;47.032;15.398;2023-07-31T02:19:10;3.53;;;2.17;;
12145;SDS011;6136;47.032;15.398;2023-07-31T02:21:38;1.93;;;1.80;;
12145;SDS011;6136;47.032;15.398;2023-07-31T02:24:06;5.17;;;2.10;;
12145;SDS011;6136;47.032;15.398;2023-07-31T02:26:34;4.07;;;1.93;;
12145;SDS011;6136;47.032;15.398;2023-07-31T02:29:03;2.87;;;2.20;;
12145;SDS011;6136;47.032;15.398;2023-07-31T02:31:31;2.10;;;1.70;;
12145;SDS011;6136;47.032;15.398;2023-07-31T02:34:00;2.07;;;1.77;;
12145;SDS011;6136;47.032;15.398;2023-07-31T02:36:28;2.40;;;1.93;;
12145;SDS011;6136;47.032;15.398;2023-07-31T02:38:57;2.20;;;1.87;;
12145;SDS011;6136;47.032;15.398;2023-07-31T02:41:25;2.07;;;1.80;;
12145;SDS011;6136;47.032;15.398;2023-07-31T02:43:53;2.63;;;2.10;;
12145;SDS011;6136;47.032;15.398;2023-07-31T02:46:21;2.43;;;1.90;;
12145;SDS011;6136;47.032;15.398;2023-07-31T02:48:51;3.17;;;2.17;;
12145;SDS011;6136;47.032;15.398;2023-07-31T02:51:20;2.37;;;2.17;;
12145;SDS011;6136;47.032;15.398;2023-07-31T02:53:48;2.27;;;1.70;;
12145;SDS011;6136;47.032;15.398;2023-07-31T02:56:17;3.20;;;2.30;;
12145;SDS011;6136;47.032;15.398;2023-07-31T02:58:45;3.07;;;2.07;;
12145;SDS011;6136;47.032;15.398;2023-07-31T03:01:13;2.77;;;2.53;;
12145;SDS011;6136;47.032;15.398;2023-07-31T03:03:42;2.27;;;2.07;;
12145;SDS011;6136;47.032;15.398;2023-07-31T03:06:11;2.20;;;2.00;;
12145;SDS011;6136;47.032;15.398;2023-07-31T03:08:40;2.77;;;1.90;;
12145;SDS011;6136;47.032;15.398;2023-07-31T03:11:08;2.90;;;2.00;;
12145;SDS011;6136;47.032;15.398;2023-07-31T03:13:36;3.53;;;2.10;;
12145;SDS011;6136;47.032;15.398;2023-07-31T03:16:04;2.17;;;1.97;;
12145;SDS011;6136;47.032;15.398;2023-07-31T03:18:33;3.93;;;2.13;;
12145;SDS011;6136;47.032;15.398;2023-07-31T03:21:01;2.87;;;2.13;;
12145;SDS011;6136;47.032;15.398;2023-07-31T03:23:29;2.73;;;2.20;;
12145;SDS011;6136;47.032;15.398;2023-07-31T03:25:59;2.07;;;1.87;;
12145;SDS011;6136;47.032;15.398;2023-07-31T03:28:27;2.47;;;1.90;;
12145;SDS011;6136;47.032;15.398;2023-07-31T03:30:56;2.27;;;2.07;;
12145;SDS011;6136;47.032;15.398;2023-07-31T03:33:24;2.83;;;2.10;;
12145;SDS011;6136;47.032;15.398;2023-07-31T03:35:52;3.50;;;2.10;;
12145;SDS011;6136;47.032;15.398;2023-07-31T03:38:21;3.37;;;1.80;;
12145;SDS011;6136;47.032;15.398;2023-07-31T03:40:49;2.10;;;1.83;;
12145;SDS011;6136;47.032;15.398;2023-07-31T03:43:18;2.50;;;2.00;;
12145;SDS011;6136;47.032;15.398;2023-07-31T03:45:46;2.27;;;2.00;;
12145;SDS011;6136;47.032;15.398;2023-07-31T03:48:15;1.90;;;1.80;;
12145;SDS011;6136;47.032;15.398;2023-07-31T03:50:43;5.97;;;1.87;;
12145;SDS011;6136;47.032;15.398;2023-07-31T03:53:11;4.43;;;2.13;;
12145;SDS011;6136;47.032;15.398;2023-07-31T03:55:39;2.53;;;1.90;;
12145;SDS011;6136;47.032;15.398;2023-07-31T03:58:07;4.03;;;1.97;;
12145;SDS011;6136;47.032;15.398;2023-07-31T04:00:37;2.63;;;2.40;;
12145;SDS011;6136;47.032;15.398;2023-07-31T04:03:05;2.50;;;1.70;;
12145;SDS011;6136;47.032;15.398;2023-07-31T04:05:33;2.20;;;1.80;;
12145;SDS011;6136;47.032;15.398;2023-07-31T04:08:05;4.30;;;3.33;;
12145;SDS011;6136;47.032;15.398;2023-07-31T04:10:34;4.67;;;3.13;;
12145;SDS011;6136;47.032;15.398;2023-07-31T04:13:02;3.33;;;2.27;;
12145;SDS011;6136;47.032;15.398;2023-07-31T04:15:30;1.90;;;1.80;;
12145;SDS011;6136;47.032;15.398;2023-07-31T04:17:59;2.10;;;1.90;;
12145;SDS011;6136;47.032;15.398;2023-07-31T04:20:27;3.40;;;1.87;;
12145;SDS011;6136;47.032;15.398;2023-07-31T04:22:55;2.07;;;1.80;;
12145;SDS011;6136;47.032;15.398;2023-07-31T04:25:24;3.27;;;2.43;;
12145;SDS011;6136;47.032;15.398;2023-07-31T04:27:52;2.23;;;2.03;;
12145;SDS011;6136;47.032;15.398;2023-07-31T04:30:20;2.47;;;1.97;;
12145;SDS011;6136;47.032;15.398;2023-07-31T04:32:48;2.77;;;2.00;;
12145;SDS011;6136;47.032;15.398;2023-07-31T04:35:18;4.13;;;2.40;;
12145;SDS011;6136;47.032;15.398;2023-07-31T04:37:46;3.10;;;2.27;;
12145;SDS011;6136;47.032;15.398;2023-07-31T04:40:15;4.27;;;3.60;;
12145;SDS011;6136;47.032;15.398;2023-07-31T04:42:44;4.73;;;3.93;;
12145;SDS011;6136;47.032;15.398;2023-07-31T04:45:12;5.00;;;3.90;;
12145;SDS011;6136;47.032;15.398;2023-07-31T04:47:41;4.40;;;3.60;;
12145;SDS011;6136;47.032;15.398;2023-07-31T04:50:09;5.80;;;4.27;;
12145;SDS011;6136;47.032;15.398;2023-07-31T04:52:39;5.63;;;4.73;;
12145;SDS011;6136;47.032;15.398;2023-07-31T04:55:08;6.97;;;4.57;;
12145;SDS011;6136;47.032;15.398;2023-07-31T04:57:36;5.43;;;4.27;;
12145;SDS011;6136;47.032;15.398;2023-07-31T05:00:05;6.67;;;4.70;;
12145;SDS011;6136;47.032;15.398;2023-07-31T05:02:34;5.37;;;3.90;;
12145;SDS011;6136;47.032;15.398;2023-07-31T05:05:02;6.00;;;4.17;;
12145;SDS011;6136;47.032;15.398;2023-07-31T05:07:31;5.33;;;4.50;;
12145;SDS011;6136;47.032;15.398;2023-07-31T05:10:00;5.60;;;4.63;;
12145;SDS011;6136;47.032;15.398;2023-07-31T05:12:28;6.40;;;4.83;;
12145;SDS011;6136;47.032;15.398;2023-07-31T05:14:56;7.77;;;5.27;;
12145;SDS011;6136;47.032;15.398;2023-07-31T05:17:24;7.80;;;5.43;;
12145;SDS011;6136;47.032;15.398;2023-07-31T05:19:54;8.32;;;5.95;;
12145;SDS011;6136;47.032;15.398;2023-07-31T05:22:22;9.83;;;6.07;;
12145;SDS011;6136;47.032;15.398;2023-07-31T05:24:50;6.45;;;5.50;;
12145;SDS011;6136;47.032;15.398;2023-07-31T05:27:19;8.85;;;5.70;;
12145;SDS011;6136;47.032;15.398;2023-07-31T05:29:47;8.07;;;6.10;;
12145;SDS011;6136;47.032;15.398;2023-07-31T05:32:15;9.80;;;6.55;;
12145;SDS011;6136;47.032;15.398;2023-07-31T05:34:44;10.07;;;6.30;;
12145;SDS011;6136;47.032;15.398;2023-07-31T05:37:12;11.45;;;6.32;;
12145;SDS011;6136;47.032;15.398;2023-07-31T05:39:40;8.20;;;6.43;;
12145;SDS011;6136;47.032;15.398;2023-07-31T05:42:08;10.23;;;6.80;;
12145;SDS011;6136;47.032;15.398;2023-07-31T05:44:38;10.38;;;6.10;;
12145;SDS011;6136;47.032;15.398;2023-07-31T05:47:06;10.25;;;6.10;;
12145;SDS011;6136;47.032;15.398;2023-07-31T05:49:34;9.70;;;6.50;;
12145;SDS011;6136;47.032;15.398;2023-07-31T05:52:02;6.53;;;5.15;;
12145;SDS011;6136;47.032;15.398;2023-07-31T05:54:31;6.85;;;5.20;;
12145;SDS011;6136;47.032;15.398;2023-07-31T05:57:00;9.93;;;5.40;;
12145;SDS011;6136;47.032;15.398;2023-07-31T05:59:28;10.00;;;5.70;;
12145;SDS011;6136;47.032;15.398;2023-07-31T06:02:01;5.88;;;5.25;;
12145;SDS011;6136;47.032;15.398;2023-07-31T06:04:29;7.15;;;5.47;;
12145;SDS011;6136;47.032;15.398;2023-07-31T06:06:57;6.35;;;4.47;;
12145;SDS011;6136;47.032;15.398;2023-07-31T06:09:25;5.60;;;4.10;;
12145;SDS011;6136;47.032;15.398;2023-07-31T06:11:53;5.55;;;4.05;;
12145;SDS011;6136;47.032;15.398;2023-07-31T06:14:21;6.72;;;4.25;;
12145;SDS011;6136;47.032;15.398;2023-07-31T06:16:50;7.35;;;4.28;;
12145;SDS011;6136;47.032;15.398;2023-07-31T06:19:19;5.65;;;4.05;;
12145;SDS011;6136;47.032;15.398;2023-07-31T06:21:47;6.90;;;4.80;;
12145;SDS011;6136;47.032;15.398;2023-07-31T06:24:16;8.63;;;5.78;;
12145;SDS011;6136;47.032;15.398;2023-07-31T06:26:46;8.00;;;5.57;;
12145;SDS011;6136;47.032;15.398;2023-07-31T06:29:15;6.78;;;5.30;;
12145;SDS011;6136;47.032;15.398;2023-07-31T06:31:43;5.68;;;5.05;;
12145;SDS011;6136;47.032;15.398;2023-07-31T06:34:11;7.38;;;5.07;;
12145;SDS011;6136;47.032;15.398;2023-07-31T06:36:41;6.85;;;4.93;;
12145;SDS011;6136;47.032;15.398;2023-07-31T06:39:09;5.13;;;4.47;;
12145;SDS011;6136;47.032;15.398;2023-07-31T06:41:37;6.63;;;4.03;;
12145;SDS011;6136;47.032;15.398;2023-07-31T06:44:09;4.82;;;4.32;;
12145;SDS011;6136;47.032;15.398;2023-07-31T06:46:37;5.43;;;3.78;;
12145;SDS011;6136;47.032;15.398;2023-07-31T06:49:06;4.25;;;3.28;;
12145;SDS011;6136;47.032;15.398;2023-07-31T06:51:34;3.78;;;3.20;;
12145;SDS011;6136;47.032;15.398;2023-07-31T06:54:07;6.38;;;3.38;;
12145;SDS011;6136;47.032;15.398;2023-07-31T06:56:36;6.03;;;2.70;;
12145;SDS011;6136;47.032;15.398;2023-07-31T06:59:06;4.82;;;3.05;;
12145;SDS011;6136;47.032;15.398;2023-07-31T07:01:34;3.50;;;3.10;;
12145;SDS011;6136;47.032;15.398;2023-07-31T07:04:02;3.60;;;3.15;;
12145;SDS011;6136;47.032;15.398;2023-07-31T07:06:31;3.33;;;2.97;;
12145;SDS011;6136;47.032;15.398;2023-07-31T07:09:00;3.75;;;3.42;;
12145;SDS011;6136;47.032;15.398;2023-07-31T07:11:32;5.68;;;2.97;;
12145;SDS011;6136;47.032;15.398;2023-07-31T07:14:01;9.07;;;2.63;;
12145;SDS011;6136;47.032;15.398;2023-07-31T07:16:34;4.60;;;2.70;;
12145;SDS011;6136;47.032;15.398;2023-07-31T07:19:04;5.68;;;2.45;;
12145;SDS011;6136;47.032;15.398;2023-07-31T07:21:36;6.60;;;2.95;;
12145;SDS011;6136;47.032;15.398;2023-07-31T07:24:04;2.67;;;2.38;;
12145;SDS011;6136;47.032;15.398;2023-07-31T07:26:35;2.58;;;2.38;;
12145;SDS011;6136;47.032;15.398;2023-07-31T07:29:03;4.38;;;2.42;;
12145;SDS011;6136;47.032;15.398;2023-07-31T07:31:34;5.75;;;2.15;;
12145;SDS011;6136;47.032;15.398;2023-07-31T07:34:02;3.45;;;1.90;;
12145;SDS011;6136;47.032;15.398;2023-07-31T07:36:30;2.60;;;2.40;;
12145;SDS011;6136;47.032;15.398;2023-07-31T07:38:59;2.83;;;2.33;;
12145;SDS011;6136;47.032;15.398;2023-07-31T07:41:28;2.58;;;2.38;;
12145;SDS011;6136;47.032;15.398;2023-07-31T07:43:57;2.67;;;2.17;;
12145;SDS011;6136;47.032;15.398;2023-07-31T07:46:25;2.58;;;2.38;;
12145;SDS011;6136;47.032;15.398;2023-07-31T07:48:54;2.17;;;1.98;;
12145;SDS011;6136;47.032;15.398;2023-07-31T07:51:22;4.45;;;2.83;;
12145;SDS011;6136;47.032;15.398;2023-07-31T07:53:50;6.55;;;2.50;;
12145;SDS011;6136;47.032;15.398;2023-07-31T07:56:18;3.25;;;2.15;;
12145;SDS011;6136;47.032;15.398;2023-07-31T07:58:50;2.60;;;2.25;;
12145;SDS011;6136;47.032;15.398;2023-07-31T08:01:23;5.22;;;2.60;;
12145;SDS011;6136;47.032;15.398;2023-07-31T08:03:51;3.88;;;2.38;;
12145;SDS011;6136;47.032;15.398;2023-07-31T08:06:20;2.92;;;2.08;;
12145;SDS011;6136;47.032;15.398;2023-07-31T08:08:49;2.47;;;2.28;;
12145;SDS011;6136;47.032;15.398;2023-07-31T08:11:17;3.65;;;2.42;;
12145;SDS011;6136;47.032;15.398;2023-07-31T08:13:45;2.60;;;2.25;;
12145;SDS011;6136;47.032;15.398;2023-07-31T08:16:13;2.08;;;1.88;;
12145;SDS011;6136;47.032;15.398;2023-07-31T08:18:43;12.13;;;2.33;;
12145;SDS011;6136;47.032;15.398;2023-07-31T08:21:11;2.28;;;2.03;;
12145;SDS011;6136;47.032;15.398;2023-07-31T08:23:40;2.45;;;2.10;;
12145;SDS011;6136;47.032;15.398;2023-07-31T08:26:08;4.05;;;2.58;;
12145;SDS011;6136;47.032;15.398;2023-07-31T08:28:41;2.10;;;1.90;;
12145;SDS011;6136;47.032;15.398;2023-07-31T08:31:09;2.33;;;2.03;;
12145;SDS011;6136;47.032;15.398;2023-07-31T08:33:38;2.60;;;2.25;;
12145;SDS011;6136;47.032;15.398;2023-07-31T08:36:07;3.38;;;2.15;;
12145;SDS011;6136;47.032;15.398;2023-07-31T08:38:36;3.05;;;1.95;;
12145;SDS011;6136;47.032;15.398;2023-07-31T08:41:04;9.45;;;2.20;;
12145;SDS011;6136;47.032;15.398;2023-07-31T08:43:32;2.58;;;1.98;;
12145;SDS011;6136;47.032;15.398;2023-07-31T08:46:01;2.00;;;1.90;;
12145;SDS011;6136;47.032;15.398;2023-07-31T08:48:30;2.20;;;2.00;;
12145;SDS011;6136;47.032;15.398;2023-07-31T08:50:59;2.53;;;2.05;;
12145;SDS011;6136;47.032;15.398;2023-07-31T08:53:29;2.75;;;1.90;;
12145;SDS011;6136;47.032;15.398;2023-07-31T08:55:57;2.17;;;1.90;;
12145;SDS011;6136;47.032;15.398;2023-07-31T08:58:27;2.20;;;2.00;;
12145;SDS011;6136;47.032;15.398;2023-07-31T09:00:56;2.58;;;2.08;;
12145;SDS011;6136;47.032;15.398;2023-07-31T09:03:26;3.35;;;2.20;;
12145;SDS011;6136;47.032;15.398;2023-07-31T09:05:56;1.88;;;1.70;;
12145;SDS011;6136;47.032;15.398;2023-07-31T09:08:26;3.05;;;2.30;;
12145;SDS011;6136;47.032;15.398;2023-07-31T09:11:00;3.85;;;2.05;;
12145;SDS011;6136;47.032;15.398;2023-07-31T09:13:32;3.58;;;2.55;;
12145;SDS011;6136;47.032;15.398;2023-07-31T09:16:01;2.40;;;2.00;;
12145;SDS011;6136;47.032;15.398;2023-07-31T09:18:29;1.75;;;1.65;;
12145;SDS011;6136;47.032;15.398;2023-07-31T09:21:00;3.78;;;2.33;;
12145;SDS011;6136;47.032;15.398;2023-07-31T09:23:42;2.90;;;1.90;;
12145;SDS011;6136;47.032;15.398;2023-07-31T09:26:13;2.70;;;2.42;;
12145;SDS011;6136;47.032;15.398;2023-07-31T09:28:56;2.65;;;2.15;;
12145;SDS011;6136;47.032;15.398;2023-07-31T09:31:38;2.35;;;2.08;;
12145;SDS011;6136;47.032;15.398;2023-07-31T09:34:08;2.58;;;2.10;;
12145;SDS011;6136;47.032;15.398;2023-07-31T09:36:39;2.10;;;1.90;;
12145;SDS011;6136;47.032;15.398;2023-07-31T09:39:09;2.63;;;1.80;;
12145;SDS011;6136;47.032;15.398;2023-07-31T09:41:40;2.40;;;2.20;;
12145;SDS011;6136;47.032;15.398;2023-07-31T09:44:09;2.42;;;2.20;;
12145;SDS011;6136;47.032;15.398;2023-07-31T09:46:37;2.42;;;2.22;;
12145;SDS011;6136;47.032;15.398;2023-07-31T09:49:07;3.30;;;2.40;;
12145;SDS011;6136;47.032;15.398;2023-07-31T09:51:37;2.97;;;2.20;;
12145;SDS011;6136;47.032;15.398;2023-07-31T09:54:09;3.80;;;2.20;;
12145;SDS011;6136;47.032;15.398;2023-07-31T09:56:42;2.08;;;1.88;;
12145;SDS011;6136;47.032;15.398;2023-07-31T09:59:12;2.58;;;2.10;;
12145;SDS011;6136;47.032;15.398;2023-07-31T10:01:41;2.20;;;2.00;;
12145;SDS011;6136;47.032;15.398;2023-07-31T10:04:11;2.42;;;2.10;;
12145;SDS011;6136;47.032;15.398;2023-07-31T10:06:40;2.40;;;2.20;;
12145;SDS011;6136;47.032;15.398;2023-07-31T10:09:11;2.80;;;2.58;;
12145;SDS011;6136;47.032;15.398;2023-07-31T10:11:46;4.88;;;1.98;;
12145;SDS011;6136;47.032;15.398;2023-07-31T10:14:19;2.15;;;1.98;;
12145;SDS011;6136;47.032;15.398;2023-07-31T10:16:48;2.38;;;2.17;;
12145;SDS011;6136;47.032;15.398;2023-07-31T10:19:18;2.40;;;2.20;;
12145;SDS011;6136;47.032;15.398;2023-07-31T10:21:46;2.40;;;2.20;;
12145;SDS011;6136;47.032;15.398;2023-07-31T10:24:16;3.10;;;2.35;;
12145;SDS011;6136;47.032;15.398;2023-07-31T10:26:46;2.80;;;2.17;;
12145;SDS011;6136;47.032;15.398;2023-07-31T10:29:16;3.35;;;2.20;;
12145;SDS011;6136;47.032;15.398;2023-07-31T10:31:45;2.13;;;1.90;;
12145;SDS011;6136;47.032;15.398;2023-07-31T10:34:14;3.58;;;2.40;;
12145;SDS011;6136;47.032;15.398;2023-07-31T10:36:43;2.88;;;2.00;;
12145;SDS011;6136;47.032;15.398;2023-07-31T10:42:12;2.22;;;2.03;;
12145;SDS011;6136;47.032;15.398;2023-07-31T10:44:43;2.20;;;2.00;;
12145;SDS011;6136;47.032;15.398;2023-07-31T10:47:14;2.42;;;2.22;;
12145;SDS011;6136;47.032;15.398;2023-07-31T10:49:44;2.42;;;2.22;;
12145;SDS011;6136;47.032;15.398;2023-07-31T10:52:13;3.75;;;2.10;;
12145;SDS011;6136;47.032;15.398;2023-07-31T10:54:41;3.22;;;2.20;;
12145;SDS011;6136;47.032;15.398;2023-07-31T10:57:20;3.20;;;2.33;;
12145;SDS011;6136;47.032;15.398;2023-07-31T10:59:50;2.83;;;2.53;;
12145;SDS011;6136;47.032;15.398;2023-07-31T11:02:25;2.60;;;2.40;;
12145;SDS011;6136;47.032;15.398;2023-07-31T11:05:06;2.20;;;2.00;;
12145;SDS011;6136;47.032;15.398;2023-07-31T11:07:47;2.37;;;2.23;;
12145;SDS011;6136;47.032;15.398;2023-07-31T11:10:16;3.67;;;2.28;;
12145;SDS011;6136;47.032;15.398;2023-07-31T11:12:47;2.22;;;2.03;;
12145;SDS011;6136;47.032;15.398;2023-07-31T11:15:15;3.65;;;2.40;;
12145;SDS011;6136;47.032;15.398;2023-07-31T11:17:43;2.40;;;2.15;;
12145;SDS011;6136;47.032;15.398;2023-07-31T11:20:11;2.38;;;2.20;;
12145;SDS011;6136;47.032;15.398;2023-07-31T11:22:39;2.30;;;2.10;;
12145;SDS011;6136;47.032;15.398;2023-07-31T11:25:08;1.90;;;1.80;;
12145;SDS011;6136;47.032;15.398;2023-07-31T11:27:38;2.30;;;2.13;;
12145;SDS011;6136;47.032;15.398;2023-07-31T11:30:09;2.00;;;1.90;;
12145;SDS011;6136;47.032;15.398;2023-07-31T11:32:38;2.60;;;2.17;;
12145;SDS011;6136;47.032;15.398;2023-07-31T11:35:06;3.25;;;2.33;;
12145;SDS011;6136;47.032;15.398;2023-07-31T11:37:41;2.47;;;2.28;;
12145;SDS011;6136;47.032;15.398;2023-07-31T11:40:10;2.33;;;2.13;;
12145;SDS011;6136;47.032;15.398;2023-07-31T11:42:39;3.67;;;2.33;;
12145;SDS011;6136;47.032;15.398;2023-07-31T11:45:09;3.47;;;2.47;;
12145;SDS011;6136;47.032;15.398;2023-07-31T11:47:37;3.50;;;2.15;;
12145;SDS011;6136;47.032;15.398;2023-07-31T11:50:11;3.15;;;2.22;;
12145;SDS011;6136;47.032;15.398;2023-07-31T11:52:40;2.22;;;2.00;;
12145;SDS011;6136;47.032;15.398;2023-07-31T11:55:12;2.35;;;2.15;;
12145;SDS011;6136;47.032;15.398;2023-07-31T11:57:41;5.78;;;2.33;;
12145;SDS011;6136;47.032;15.398;2023-07-31T12:00:14;2.55;;;2.35;;
12145;SDS011;6136;47.032;15.398;2023-07-31T12:02:43;2.30;;;2.10;;
12145;SDS011;6136;47.032;15.398;2023-07-31T12:05:12;2.65;;;2.08;;
12145;SDS011;6136;47.032;15.398;2023-07-31T12:07:44;5.22;;;2.35;;
12145;SDS011;6136;47.032;15.398;2023-07-31T12:10:23;5.55;;;1.95;;
12145;SDS011;6136;47.032;15.398;2023-07-31T12:12:55;3.40;;;2.10;;
12145;SDS011;6136;47.032;15.398;2023-07-31T12:15:30;5.68;;;2.85;;
12145;SDS011;6136;47.032;15.398;2023-07-31T12:18:04;3.38;;;2.15;;
12145;SDS011;6136;47.032;15.398;2023-07-31T12:20:34;3.28;;;2.28;;
12145;SDS011;6136;47.032;15.398;2023-07-31T12:23:02;2.60;;;2.40;;
12145;SDS011;6136;47.032;15.398;2023-07-31T12:25:31;2.45;;;2.20;;
12145;SDS011;6136;47.032;15.398;2023-07-31T12:28:03;2.30;;;2.10;;
12145;SDS011;6136;47.032;15.398;2023-07-31T12:30:35;2.30;;;2.10;;
12145;SDS011;6136;47.032;15.398;2023-07-31T12:33:03;2.40;;;2.20;;
12145;SDS011;6136;47.032;15.398;2023-07-31T12:35:40;2.08;;;1.98;;
12145;SDS011;6136;47.032;15.398;2023-07-31T12:38:09;2.30;;;2.10;;
12145;SDS011;6136;47.032;15.398;2023-07-31T12:40:37;4.78;;;2.47;;
12145;SDS011;6136;47.032;15.398;2023-07-31T12:43:06;3.55;;;2.25;;
12145;SDS011;6136;47.032;15.398;2023-07-31T12:45:36;2.28;;;2.08;;
12145;SDS011;6136;47.032;15.398;2023-07-31T12:48:04;3.85;;;2.50;;
12145;SDS011;6136;47.032;15.398;2023-07-31T12:50:33;2.30;;;2.10;;
12145;SDS011;6136;47.032;15.398;2023-07-31T12:53:03;3.25;;;2.35;;
12145;SDS011;6136;47.032;15.398;2023-07-31T12:55:31;2.95;;;2.40;;
12145;SDS011;6136;47.032;15.398;2023-07-31T12:58:01;5.78;;;2.08;;
12145;SDS011;6136;47.032;15.398;2023-07-31T13:00:29;2.40;;;2.20;;
12145;SDS011;6136;47.032;15.398;2023-07-31T13:02:58;2.88;;;2.65;;
12145;SDS011;6136;47.032;15.398;2023-07-31T13:05:27;2.63;;;1.88;;
12145;SDS011;6136;47.032;15.398;2023-07-31T13:07:55;3.20;;;2.50;;
12145;SDS011;6136;47.032;15.398;2023-07-31T13:10:24;3.13;;;2.08;;
12145;SDS011;6136;47.032;15.398;2023-07-31T13:12:53;2.85;;;2.38;;
12145;SDS011;6136;47.032;15.398;2023-07-31T13:15:21;2.67;;;1.83;;
12145;SDS011;6136;47.032;15.398;2023-07-31T13:17:50;3.70;;;2.08;;
12145;SDS011;6136;47.032;15.398;2023-07-31T13:20:19;2.40;;;2.20;;
12145;SDS011;6136;47.032;15.398;2023-07-31T13:22:47;2.50;;;2.00;;
12145;SDS011;6136;47.032;15.398;2023-07-31T13:25:15;4.65;;;2.13;;
12145;SDS011;6136;47.032;15.398;2023-07-31T13:27:43;3.40;;;2.13;;
12145;SDS011;6136;47.032;15.398;2023-07-31T13:30:12;3.83;;;2.00;;
12145;SDS011;6136;47.032;15.398;2023-07-31T13:32:40;2.28;;;2.08;;
12145;SDS011;6136;47.032;15.398;2023-07-31T13:35:08;2.42;;;2.22;;
12145;SDS011;6136;47.032;15.398;2023-07-31T13:37:39;2.35;;;2.05;;
12145;SDS011;6136;47.032;15.398;2023-07-31T13:40:07;2.60;;;2.40;;
12145;SDS011;6136;47.032;15.398;2023-07-31T13:42:36;2.50;;;2.30;;
12145;SDS011;6136;47.032;15.398;2023-07-31T13:45:05;3.40;;;2.10;;
12145;SDS011;6136;47.032;15.398;2023-07-31T13:47:33;2.45;;;2.13;;
12145;SDS011;6136;47.032;15.398;2023-07-31T13:50:04;2.35;;;1.92;;
12145;SDS011;6136;47.032;15.398;2023-07-31T13:52:32;3.20;;;2.33;;
12145;SDS011;6136;47.032;15.398;2023-07-31T13:55:02;2.42;;;2.22;;
12145;SDS011;6136;47.032;15.398;2023-07-31T13:57:32;2.58;;;2.38;;
12145;SDS011;6136;47.032;15.398;2023-07-31T14:00:04;2.45;;;2.28;;
12145;SDS011;6136;47.032;15.398;2023-07-31T14:02:33;2.40;;;2.20;;
12145;SDS011;6136;47.032;15.398;2023-07-31T14:05:01;2.60;;;2.40;;
12145;SDS011;6136;47.032;15.398;2023-07-31T14:07:31;2.20;;;1.90;;
12145;SDS011;6136;47.032;15.398;2023-07-31T14:09:59;4.18;;;2.40;;
12145;SDS011;6136;47.032;15.398;2023-07-31T14:12:30;2.35;;;2.15;;
12145;SDS011;6136;47.032;15.398;2023-07-31T14:15:08;3.20;;;2.30;;
12145;SDS011;6136;47.032;15.398;2023-07-31T14:17:37;2.92;;;2.30;;
12145;SDS011;6136;47.032;15.398;2023-07-31T14:20:06;2.97;;;2.35;;
12145;SDS011;6136;47.032;15.398;2023-07-31T14:22:35;2.20;;;2.00;;
12145;SDS011;6136;47.032;15.398;2023-07-31T14:25:06;3.10;;;1.95;;
12145;SDS011;6136;47.032;15.398;2023-07-31T14:27:37;2.50;;;2.30;;
12145;SDS011;6136;47.032;15.398;2023-07-31T14:30:05;2.10;;;2.00;;
12145;SDS011;6136;47.032;15.398;2023-07-31T14:32:35;3.28;;;2.60;;
12145;SDS011;6136;47.032;15.398;2023-07-31T14:35:03;2.80;;;2.22;;
12145;SDS011;6136;47.032;15.398;2023-07-31T14:37:36;2.78;;;2.50;;
12145;SDS011;6136;47.032;15.398;2023-07-31T14:40:07;2.70;;;2.50;;
12145;SDS011;6136;47.032;15.398;2023-07-31T14:42:36;2.72;;;2.45;;
12145;SDS011;6136;47.032;15.398;2023-07-31T14:45:05;2.63;;;2.30;;
12145;SDS011;6136;47.032;15.398;2023-07-31T14:47:35;4.45;;;2.00;;
12145;SDS011;6136;47.032;15.398;2023-07-31T14:50:03;2.50;;;2.30;;
12145;SDS011;6136;47.032;15.398;2023-07-31T14:52:32;2.70;;;2.50;;
12145;SDS011;6136;47.032;15.398;2023-07-31T14:55:00;2.45;;;2.13;;
12145;SDS011;6136;47.032;15.398;2023-07-31T14:57:30;2.50;;;2.30;;
12145;SDS011;6136;47.032;15.398;2023-07-31T14:59:58;3.42;;;2.47;;
12145;SDS011;6136;47.032;15.398;2023-07-31T15:02:29;4.03;;;2.58;;
12145;SDS011;6136;47.032;15.398;2023-07-31T15:04:58;2.75;;;2.30;;